createdAt,value
2023-02-24T00:01:23.791Z,0.99
2023-02-24T00:03:29.562Z,1.02
2023-02-24T00:05:35.202Z,1.08
2023-02-24T00:07:40.486Z,1.09
2023-02-24T00:09:45.698Z,1.11
2023-02-24T00:11:51.078Z,1.18
2023-02-24T00:13:56.222Z,1.23
2023-02-24T00:16:01.711Z,1.24
2023-02-24T00:18:07.587Z,1.34
2023-02-24T00:20:13.049Z,1.43
2023-02-24T00:22:18.433Z,1.46
2023-02-24T00:24:23.875Z,1.54
2023-02-24T00:26:32.397Z,1.59
2023-02-24T00:28:37.719Z,1.7
2023-02-24T00:30:43.420Z,1.76
2023-02-24T00:32:49.002Z,1.82
2023-02-24T00:34:54.751Z,1.85
2023-02-24T00:37:00.101Z,1.9
2023-02-24T00:39:05.778Z,1.96
2023-02-24T00:41:11.085Z,1.98
2023-02-24T00:43:16.243Z,2.04
2023-02-24T00:45:21.694Z,2.14
2023-02-24T00:47:27.385Z,2.21
2023-02-24T00:49:32.966Z,2.28
2023-02-24T00:51:38.267Z,2.34
2023-02-24T00:53:43.890Z,2.36
2023-02-24T00:55:49.288Z,2.37
2023-02-24T00:57:54.522Z,2.39
2023-02-24T00:59:59.829Z,2.42
2023-02-24T01:02:05.581Z,2.46
2023-02-24T01:04:11.504Z,2.46
2023-02-24T01:06:17.182Z,2.47
2023-02-24T01:08:22.745Z,2.45
2023-02-24T01:10:28.394Z,2.46
2023-02-24T01:12:33.694Z,2.47
2023-02-24T01:14:39.294Z,2.52
2023-02-24T01:16:45.052Z,2.58
2023-02-24T01:18:50.714Z,2.65
2023-02-24T01:20:55.904Z,2.71
2023-02-24T01:23:01.543Z,2.74
2023-02-24T01:25:09.836Z,2.75
2023-02-24T01:27:15.356Z,2.83
2023-02-24T01:29:21.279Z,2.83
2023-02-24T01:31:26.929Z,2.86
2023-02-24T01:33:32.743Z,2.97
2023-02-24T01:35:38.411Z,3.03
2023-02-24T01:37:43.741Z,3.07
2023-02-24T01:39:49.134Z,3.1
2023-02-24T01:41:54.294Z,3.15
2023-02-24T01:43:59.688Z,3.17
2023-02-24T01:46:07.740Z,3.24
2023-02-24T01:48:13.381Z,3.29
2023-02-24T01:50:18.920Z,3.34
2023-02-24T01:52:27.121Z,3.39
2023-02-24T01:54:32.822Z,3.42
2023-02-24T01:56:38.507Z,3.43
2023-02-24T01:58:43.760Z,3.47
2023-02-24T02:00:49.257Z,3.49
2023-02-24T02:02:55.011Z,3.54
2023-02-24T02:05:01.127Z,3.6
2023-02-24T02:07:06.458Z,3.64
2023-02-24T02:09:12.296Z,3.8
2023-02-24T02:11:17.615Z,3.81
2023-02-24T02:13:25.217Z,3.81
2023-02-24T02:15:31.025Z,3.83
2023-02-24T02:17:36.321Z,3.84
2023-02-24T02:19:41.814Z,3.86
2023-02-24T02:21:47.099Z,3.95
2023-02-24T02:23:52.422Z,3.97
2023-02-24T02:25:57.954Z,3.99
2023-02-24T02:28:03.142Z,4.04
2023-02-24T02:30:08.599Z,4.07
2023-02-24T02:32:14.350Z,4.06
2023-02-24T02:34:20.379Z,4.06
2023-02-24T02:36:25.533Z,4.07
2023-02-24T02:38:30.529Z,4.06
2023-02-24T02:40:35.739Z,4.07
2023-02-24T02:42:41.010Z,4.1
2023-02-24T02:44:46.347Z,4.13
2023-02-24T02:46:51.461Z,4.15
2023-02-24T02:48:58.318Z,4.14
2023-02-24T02:51:03.856Z,4.14
2023-02-24T02:53:08.998Z,4.15
2023-02-24T02:55:14.256Z,4.13
2023-02-24T02:57:19.480Z,4.13
2023-02-24T02:59:24.710Z,4.16
2023-02-24T03:01:29.809Z,4.15
2023-02-24T03:03:35.748Z,4.12
2023-02-24T03:05:41.089Z,4.12
2023-02-24T03:07:46.490Z,4.23
2023-02-24T03:09:52.008Z,4.23
2023-02-24T03:12:14.664Z,4.2
2023-02-24T03:14:20.004Z,4.23
2023-02-24T03:16:25.564Z,4.37
2023-02-24T03:18:31.301Z,4.39
2023-02-24T03:20:36.688Z,4.38
2023-02-24T03:22:41.888Z,4.41
2023-02-24T03:24:47.396Z,4.41
2023-02-24T03:26:52.700Z,4.43
2023-02-24T03:28:59.751Z,4.51
2023-02-24T03:31:05.133Z,4.51
2023-02-24T03:33:10.995Z,4.55
2023-02-24T03:35:16.589Z,4.56
2023-02-24T03:37:21.990Z,4.56
2023-02-24T03:39:27.150Z,4.58
2023-02-24T03:41:32.624Z,4.57
2023-02-24T03:43:41.387Z,4.57
2023-02-24T03:45:46.772Z,4.6
2023-02-24T03:47:52.634Z,4.61
2023-02-24T03:49:58.261Z,4.63
2023-02-24T03:52:03.310Z,4.6
2023-02-24T03:54:08.354Z,4.59
2023-02-24T03:56:13.389Z,4.6
2023-02-24T03:58:18.795Z,4.58
2023-02-24T04:00:24.036Z,4.57
2023-02-24T04:02:29.198Z,4.59
2023-02-24T04:04:34.934Z,4.59
2023-02-24T04:06:40.957Z,4.61
2023-02-24T04:08:46.499Z,4.59
2023-02-24T04:10:51.900Z,4.59
2023-02-24T04:12:57.713Z,4.6
2023-02-24T04:15:03.065Z,4.62
2023-02-24T04:17:08.426Z,4.61
2023-02-24T04:19:14.277Z,4.59
2023-02-24T04:21:20.178Z,4.61
2023-02-24T04:23:26.242Z,4.61
2023-02-24T04:25:31.663Z,4.67
2023-02-24T04:27:37.397Z,4.66
2023-02-24T04:29:42.819Z,4.68
2023-02-24T04:31:48.296Z,4.68
2023-02-24T04:33:55.178Z,4.68
2023-02-24T04:36:00.443Z,4.72
2023-02-24T04:38:05.419Z,4.77
2023-02-24T04:40:10.711Z,4.78
2023-02-24T04:42:17.643Z,4.79
2023-02-24T04:44:23.438Z,4.79
2023-02-24T04:46:29.234Z,4.8
2023-02-24T04:48:35.041Z,4.83
2023-02-24T04:50:40.394Z,4.83
2023-02-24T04:52:45.691Z,4.87
2023-02-24T04:54:50.963Z,4.9
2023-02-24T04:56:58.355Z,4.94
2023-02-24T04:59:04.351Z,4.97
2023-02-24T05:01:09.993Z,4.99
2023-02-24T05:03:15.256Z,5.04
2023-02-24T05:05:20.711Z,5.02
2023-02-24T05:07:26.211Z,5.03
2023-02-24T05:09:31.746Z,5.04
2023-02-24T05:11:36.992Z,5.05
2023-02-24T05:13:42.122Z,5.08
2023-02-24T05:15:47.408Z,5.09
2023-02-24T05:17:53.177Z,5.09
2023-02-24T05:19:58.595Z,5.12
2023-02-24T05:22:03.888Z,5.17
2023-02-24T05:24:09.567Z,5.16
2023-02-24T05:26:14.750Z,5.18
2023-02-24T05:28:20.299Z,5.17
2023-02-24T05:30:25.569Z,5.18
2023-02-24T05:32:31.460Z,5.18
2023-02-24T05:34:37.374Z,5.19
2023-02-24T05:36:42.512Z,5.21
2023-02-24T05:38:48.378Z,5.23
2023-02-24T05:40:53.592Z,5.28
2023-02-24T05:42:59.044Z,5.3
2023-02-24T05:45:04.279Z,5.3
2023-02-24T05:47:09.938Z,5.3
2023-02-24T05:49:15.449Z,5.28
2023-02-24T05:51:20.902Z,5.3
2023-02-24T05:53:27.228Z,5.36
2023-02-24T05:55:32.813Z,5.35
2023-02-24T05:57:37.969Z,5.36
2023-02-24T05:59:43.502Z,5.37
2023-02-24T06:01:49.011Z,5.38
2023-02-24T06:03:54.587Z,5.38
2023-02-24T06:06:01.477Z,5.37
2023-02-24T06:08:06.962Z,5.4
2023-02-24T06:10:12.326Z,5.44
2023-02-24T06:12:17.831Z,5.45
2023-02-24T06:14:23.282Z,5.49
2023-02-24T06:16:28.815Z,5.51
2023-02-24T06:18:34.862Z,5.49
2023-02-24T06:20:40.557Z,5.51
2023-02-24T06:22:46.281Z,5.56
2023-02-24T06:24:51.679Z,5.56
2023-02-24T06:26:57.147Z,5.59
2023-02-24T06:29:02.572Z,5.57
2023-02-24T06:31:08.088Z,5.58
2023-02-24T06:33:13.611Z,5.6
2023-02-24T06:35:19.193Z,5.64
2023-02-24T06:37:24.984Z,5.64
2023-02-24T06:39:30.948Z,5.64
2023-02-24T06:41:40.089Z,5.66
2023-02-24T06:43:46.320Z,5.69
2023-02-24T06:45:52.572Z,5.67
2023-02-24T06:47:58.916Z,5.68
2023-02-24T06:50:04.824Z,5.7
2023-02-24T06:52:10.784Z,5.73
2023-02-24T06:54:16.604Z,5.74
2023-02-24T06:56:22.184Z,5.73
2023-02-24T06:58:29.257Z,5.78
2023-02-24T07:00:35.502Z,5.8
2023-02-24T07:02:42.897Z,5.81
2023-02-24T07:04:48.963Z,5.83
2023-02-24T07:06:55.191Z,5.87
2023-02-24T07:09:01.643Z,5.91
2023-02-24T07:11:08.262Z,5.98
2023-02-24T07:13:14.511Z,5.94
2023-02-24T07:15:20.029Z,5.97
2023-02-24T07:17:25.422Z,5.95
2023-02-24T07:19:30.884Z,6
2023-02-24T07:21:36.729Z,5.97
2023-02-24T07:23:42.538Z,5.98
2023-02-24T07:25:48.094Z,6.01
2023-02-24T07:27:54.788Z,6.03
2023-02-24T07:30:00.787Z,6.04
2023-02-24T07:32:06.251Z,6.04
2023-02-24T07:34:13.319Z,6.04
2023-02-24T07:36:19.254Z,6.05
2023-02-24T07:38:24.693Z,6.06
2023-02-24T07:40:30.088Z,6.08
2023-02-24T07:42:35.517Z,6.11
2023-02-24T07:44:41.830Z,6.12
2023-02-24T07:46:48.329Z,6.14
2023-02-24T07:48:53.573Z,6.13
2023-02-24T07:50:59.540Z,6.11
2023-02-24T07:53:06.177Z,6.17
2023-02-24T07:55:11.942Z,6.15
2023-02-24T07:57:17.937Z,6.14
2023-02-24T07:59:23.999Z,6.17
2023-02-24T08:01:30.138Z,6.17
2023-02-24T08:03:36.706Z,6.14
2023-02-24T08:05:42.722Z,6.2
2023-02-24T08:07:48.671Z,6.22
2023-02-24T08:09:54.749Z,6.23
2023-02-24T08:12:01.130Z,6.27
2023-02-24T08:14:07.897Z,6.35
2023-02-24T08:16:14.070Z,6.35
2023-02-24T08:18:20.206Z,6.39
2023-02-24T08:20:26.505Z,6.32
2023-02-24T08:22:32.807Z,6.38
2023-02-24T08:24:39.326Z,6.33
2023-02-24T08:26:45.788Z,6.4
2023-02-24T08:28:52.070Z,6.42
2023-02-24T08:30:59.606Z,6.43
2023-02-24T08:33:06.995Z,6.46
2023-02-24T08:35:13.519Z,6.46
2023-02-24T08:37:19.307Z,6.46
2023-02-24T08:39:25.947Z,6.45
2023-02-24T08:41:31.862Z,6.49
2023-02-24T08:43:38.490Z,6.54
2023-02-24T08:45:44.949Z,6.54
2023-02-24T08:47:51.125Z,6.49
2023-02-24T08:49:57.343Z,6.53
2023-02-24T08:52:03.169Z,6.52
2023-02-24T08:54:09.704Z,6.55
2023-02-24T08:56:16.546Z,6.55
2023-02-24T08:58:23.614Z,6.48
2023-02-24T09:00:29.653Z,6.55
2023-02-24T09:02:36.323Z,6.58
2023-02-24T09:04:42.733Z,6.57
2023-02-24T09:06:48.630Z,6.67
2023-02-24T09:09:13.486Z,6.72
2023-02-24T09:11:20.353Z,6.75
2023-02-24T09:13:27.599Z,6.66
2023-02-24T09:15:33.121Z,6.65
2023-02-24T09:17:39.542Z,6.76
2023-02-24T09:19:45.886Z,6.82
2023-02-24T09:21:52.118Z,6.89
2023-02-24T09:23:57.933Z,6.96
2023-02-24T09:26:04.070Z,7
2023-02-24T09:28:10.362Z,6.93
2023-02-24T09:30:17.078Z,6.96
2023-02-24T09:32:23.602Z,6.93
2023-02-24T09:34:30.786Z,6.94
2023-02-24T09:36:37.102Z,6.94
2023-02-24T09:38:45.893Z,6.94
2023-02-24T09:40:51.721Z,7.04
2023-02-24T09:42:57.235Z,7.07
2023-02-24T09:45:03.499Z,6.98
2023-02-24T09:47:09.430Z,7.02
2023-02-24T09:49:15.209Z,7.04
2023-02-24T09:51:20.565Z,7
2023-02-24T09:53:27.492Z,6.99
2023-02-24T09:55:33.072Z,6.99
2023-02-24T09:57:38.713Z,6.99
2023-02-24T09:59:44.921Z,7
2023-02-24T10:01:53.402Z,7.09
2023-02-24T10:04:00.989Z,7.11
2023-02-24T10:06:24.420Z,7.21
2023-02-24T10:08:30.060Z,7.25
2023-02-24T10:10:35.281Z,7.19
2023-02-24T10:12:41.023Z,7.05
2023-02-24T10:14:51.052Z,7.05
2023-02-24T10:17:03.730Z,7.04
2023-02-24T10:19:09.455Z,7.04
2023-02-24T10:21:15.156Z,7.03
2023-02-24T10:23:22.311Z,7.06
2023-02-24T10:25:27.977Z,7.04
2023-02-24T10:27:33.269Z,7.02
2023-02-24T10:29:39.747Z,7
2023-02-24T10:31:45.913Z,7.05
2023-02-24T10:33:52.531Z,7.03
2023-02-24T10:35:58.190Z,7.02
2023-02-24T10:38:03.411Z,7
2023-02-24T10:40:09.044Z,6.95
2023-02-24T10:42:14.897Z,6.93
2023-02-24T10:44:21.266Z,6.96
2023-02-24T10:46:39.905Z,7.05
2023-02-24T10:48:49.179Z,7
2023-02-24T10:50:56.394Z,6.98
2023-02-24T10:53:03.281Z,6.96
2023-02-24T10:55:09.426Z,6.92
2023-02-24T10:57:16.038Z,6.94
2023-02-24T10:59:21.975Z,6.93
2023-02-24T11:01:28.665Z,6.98
2023-02-24T11:03:35.541Z,6.94
2023-02-24T11:05:41.623Z,6.92
2023-02-24T11:07:47.779Z,6.88
2023-02-24T11:09:54.094Z,6.88
2023-02-24T11:12:01.012Z,6.79
2023-02-24T11:14:07.307Z,6.78
2023-02-24T11:16:14.706Z,6.7
2023-02-24T11:18:21.891Z,6.62
2023-02-24T11:20:39.154Z,6.58
2023-02-24T11:22:55.196Z,6.55
2023-02-24T11:25:01.906Z,6.57
2023-02-24T11:27:11.236Z,6.62
2023-02-24T11:29:17.927Z,6.58
2023-02-24T11:31:24.805Z,6.59
2023-02-24T11:33:32.723Z,6.62
2023-02-24T11:35:38.866Z,6.64
2023-02-24T11:37:45.307Z,6.76
2023-02-24T11:39:52.382Z,6.87
2023-02-24T11:41:58.884Z,6.85
2023-02-24T11:44:05.716Z,6.76
2023-02-24T11:46:15.339Z,6.8
2023-02-24T11:48:22.300Z,6.82
2023-02-24T11:50:28.724Z,6.92
2023-02-24T11:52:35.902Z,6.87
2023-02-24T11:54:42.739Z,6.84
2023-02-24T11:56:49.806Z,6.84
2023-02-24T11:58:55.318Z,6.71
2023-02-24T12:01:01.217Z,6.66
2023-02-24T12:03:06.973Z,6.64
2023-02-24T12:05:13.664Z,6.64
2023-02-24T12:07:19.698Z,6.64
2023-02-24T12:09:27.716Z,6.71
2023-02-24T12:11:33.985Z,6.85
2023-02-24T12:13:40.064Z,6.88
2023-02-24T12:15:46.810Z,7
2023-02-24T12:17:53.307Z,7.09
2023-02-24T12:19:59.425Z,7.1
2023-02-24T12:22:06.052Z,7.24
2023-02-24T12:24:12.626Z,7.03
2023-02-24T12:26:19.362Z,7.19
2023-02-24T12:28:25.208Z,7.45
2023-02-24T12:30:31.497Z,7.71
2023-02-24T12:32:41.650Z,7.83
2023-02-24T12:34:49.233Z,7.94
2023-02-24T12:36:55.584Z,7.86
2023-02-24T12:39:01.742Z,7.96
2023-02-24T12:41:07.880Z,7.67
2023-02-24T12:43:14.751Z,7.44
2023-02-24T12:45:21.106Z,7.56
2023-02-24T12:47:27.045Z,7.31
2023-02-24T12:49:33.145Z,7.38
2023-02-24T12:51:39.676Z,7.46
2023-02-24T12:53:46.117Z,7.32
2023-02-24T12:55:52.964Z,7.28
2023-02-24T12:57:58.619Z,7.34
2023-02-24T13:00:06.267Z,7.37
2023-02-24T13:02:13.073Z,7.52
2023-02-24T13:04:19.630Z,7.66
2023-02-24T13:06:26.314Z,7.66
2023-02-24T13:08:32.672Z,7.64
2023-02-24T13:10:39.059Z,7.56
2023-02-24T13:12:45.557Z,7.51
2023-02-24T13:14:52.244Z,7.28
2023-02-24T13:16:58.567Z,7.25
2023-02-24T13:19:04.822Z,7.23
2023-02-24T13:21:12.123Z,7.28
2023-02-24T13:23:24.620Z,7.33
2023-02-24T13:25:31.106Z,7.36
2023-02-24T13:27:37.294Z,7.54
2023-02-24T13:29:43.743Z,7.68
2023-02-24T13:31:50.241Z,7.74
2023-02-24T13:33:57.235Z,7.84
2023-02-24T13:36:03.636Z,7.79
2023-02-24T13:38:09.671Z,7.8
2023-02-24T13:40:16.714Z,7.77
2023-02-24T13:42:23.345Z,7.65
2023-02-24T13:44:29.881Z,7.64
2023-02-24T13:46:36.862Z,7.74
2023-02-24T13:48:43.046Z,7.71
2023-02-24T13:50:49.668Z,7.71
2023-02-24T13:52:58.992Z,7.86
2023-02-24T13:55:05.866Z,7.95
2023-02-24T13:57:14.095Z,7.86
2023-02-24T13:59:21.495Z,7.91
2023-02-24T14:01:27.749Z,7.77
2023-02-24T14:03:35.144Z,7.79
2023-02-24T14:05:41.669Z,7.79
2023-02-24T14:07:48.046Z,7.77
2023-02-24T14:09:54.423Z,7.81
2023-02-24T14:12:01.144Z,7.8
2023-02-24T14:14:08.573Z,7.71
2023-02-24T14:16:15.822Z,7.77
2023-02-24T14:18:23.446Z,7.84
2023-02-24T14:20:29.549Z,7.82
2023-02-24T14:22:36.140Z,7.85
2023-02-24T14:24:42.685Z,7.92
2023-02-24T14:26:49.126Z,7.81
2023-02-24T14:28:56.746Z,7.8
2023-02-24T14:31:03.273Z,7.67
2023-02-24T14:33:11.575Z,7.6
2023-02-24T14:35:18.963Z,7.59
2023-02-24T14:37:25.826Z,7.61
2023-02-24T14:39:31.961Z,7.55
2023-02-24T14:41:38.789Z,7.49
2023-02-24T14:43:45.374Z,7.5
2023-02-24T14:45:52.352Z,7.46
2023-02-24T14:47:59.089Z,7.39
2023-02-24T14:50:05.097Z,7.36
2023-02-24T14:52:15.500Z,7.29
2023-02-24T14:54:22.006Z,7.24
2023-02-24T14:56:28.777Z,7.17
2023-02-24T14:58:35.980Z,7.18
2023-02-24T15:00:43.605Z,7.09
2023-02-24T15:02:50.353Z,7.05
2023-02-24T15:04:57.860Z,7.03
2023-02-24T15:07:07.154Z,7.04
2023-02-24T15:09:13.640Z,6.97
2023-02-24T15:11:20.441Z,6.96
2023-02-24T15:13:27.484Z,6.94
2023-02-24T15:15:34.191Z,6.94
2023-02-24T15:17:41.187Z,6.88
2023-02-24T15:19:48.031Z,6.84
2023-02-24T15:21:55.004Z,6.83
2023-02-24T15:24:01.858Z,6.84
2023-02-24T15:26:08.782Z,6.83
2023-02-24T15:28:16.566Z,6.84
2023-02-24T15:30:24.071Z,6.82
2023-02-24T15:32:34.432Z,6.73
2023-02-24T15:34:42.398Z,6.76
2023-02-24T15:36:51.381Z,6.68
2023-02-24T15:38:59.689Z,6.63
2023-02-24T15:41:06.818Z,6.59
2023-02-24T15:43:13.910Z,6.6
2023-02-24T15:45:20.154Z,6.56
2023-02-24T15:47:26.854Z,6.53
2023-02-24T15:49:34.110Z,6.5
2023-02-24T15:51:42.324Z,6.52
2023-02-24T15:53:49.597Z,6.47
2023-02-24T15:55:56.649Z,6.47
2023-02-24T15:58:05.661Z,6.45
2023-02-24T16:00:13.679Z,6.44
2023-02-24T16:02:23.779Z,6.41
2023-02-24T16:04:32.845Z,6.37
2023-02-24T16:06:41.466Z,6.36
2023-02-24T16:08:52.813Z,6.32
2023-02-24T16:11:02.263Z,6.33
2023-02-24T16:13:11.618Z,6.34
2023-02-24T16:15:19.923Z,6.31
2023-02-24T16:17:27.995Z,6.24
2023-02-24T16:19:34.780Z,6.22
2023-02-24T16:21:42.931Z,6.19
2023-02-24T16:23:54.383Z,6.18
2023-02-24T16:26:01.368Z,6.17
2023-02-24T16:28:08.905Z,6.14
2023-02-24T16:30:17.463Z,6.09
2023-02-24T16:32:30.853Z,6.06
2023-02-24T16:34:39.860Z,6.06
2023-02-24T16:36:47.906Z,6.03
2023-02-24T16:38:54.458Z,6
2023-02-24T16:41:00.645Z,5.95
2023-02-24T16:43:10.078Z,5.88
2023-02-24T16:45:17.354Z,5.91
2023-02-24T16:47:23.695Z,5.91
2023-02-24T16:49:29.991Z,5.9
2023-02-24T16:51:37.390Z,5.93
2023-02-24T16:53:48.349Z,5.93
2023-02-24T16:55:59.527Z,5.92
2023-02-24T16:58:06.602Z,5.9
2023-02-24T17:00:14.139Z,5.81
2023-02-24T17:02:20.671Z,5.78
2023-02-24T17:04:29.872Z,5.76
2023-02-24T17:06:36.690Z,5.78
2023-02-24T17:08:48.641Z,5.79
2023-02-24T17:10:59.062Z,5.76
2023-02-24T17:13:05.989Z,5.77
2023-02-24T17:15:13.910Z,5.74
2023-02-24T17:17:21.768Z,5.74
2023-02-24T17:19:30.550Z,5.67
2023-02-24T17:21:41.487Z,5.57
2023-02-24T17:23:49.959Z,5.45
2023-02-24T17:25:57.893Z,5.33
2023-02-24T17:28:06.479Z,5.26
2023-02-24T17:30:13.916Z,5.19
2023-02-24T17:32:21.891Z,5.14
2023-02-24T17:34:37.988Z,5.08
2023-02-24T17:36:45.479Z,5.01
2023-02-24T17:38:53.554Z,4.94
2023-02-24T17:41:02.543Z,4.92
2023-02-24T17:43:09.367Z,4.91
2023-02-24T17:45:16.100Z,4.91
2023-02-24T17:47:25.247Z,4.93
2023-02-24T17:49:36.105Z,4.95
2023-02-24T17:51:43.708Z,5.01
2023-02-24T17:53:50.986Z,5.05
2023-02-24T17:56:02.475Z,5.06
2023-02-24T17:58:13.566Z,5.02
2023-02-24T18:00:24.680Z,4.94
2023-02-24T18:02:32.659Z,4.94
2023-02-24T18:04:42.749Z,4.96
2023-02-24T18:06:50.589Z,4.91
2023-02-24T18:08:58.886Z,4.87
2023-02-24T18:11:07.458Z,4.84
2023-02-24T18:13:16.429Z,4.82
2023-02-24T18:15:27.167Z,4.79
2023-02-24T18:17:37.144Z,4.76
2023-02-24T18:19:45.248Z,4.75
2023-02-24T18:21:51.708Z,4.77
2023-02-24T18:23:59.206Z,4.76
2023-02-24T18:26:12.254Z,4.76
2023-02-24T18:28:19.831Z,4.77
2023-02-24T18:30:28.200Z,4.75
2023-02-24T18:32:36.961Z,4.75
2023-02-24T18:34:45.871Z,4.77
2023-02-24T18:36:53.069Z,4.75
2023-02-24T18:39:02.698Z,4.66
2023-02-24T18:41:13.313Z,4.68
2023-02-24T18:43:21.194Z,4.67
2023-02-24T18:45:34.264Z,4.65
2023-02-24T18:47:44.994Z,4.62
2023-02-24T18:49:54.489Z,4.59
2023-02-24T18:52:04.512Z,4.55
2023-02-24T18:54:14.118Z,4.5
2023-02-24T18:56:25.759Z,4.5
2023-02-24T18:58:35.554Z,4.5
2023-02-24T19:00:52.490Z,4.47
2023-02-24T19:03:09.751Z,4.44
2023-02-24T19:05:20.636Z,4.42
2023-02-24T19:07:43.542Z,4.37
2023-02-24T19:09:52.607Z,4.31
2023-02-24T19:12:01.620Z,4.26
2023-02-24T19:14:13.449Z,4.24
2023-02-24T19:16:26.937Z,4.2
2023-02-24T19:18:38.510Z,4.14
2023-02-24T19:20:47.005Z,4.12
2023-02-24T19:22:54.614Z,4.09
2023-02-24T19:25:03.484Z,4.06
2023-02-24T19:27:12.416Z,4.01
2023-02-24T19:29:27.924Z,3.92
2023-02-24T19:31:43.808Z,3.9
2023-02-24T19:33:53.785Z,3.89
2023-02-24T19:36:01.546Z,3.87
2023-02-24T19:38:13.553Z,3.86
2023-02-24T19:40:26.402Z,3.82
2023-02-24T19:42:34.651Z,3.78
2023-02-24T19:44:42.861Z,3.79
2023-02-24T19:46:56.418Z,3.75
2023-02-24T19:49:05.812Z,3.77
2023-02-24T19:51:14.684Z,3.76
2023-02-24T19:53:26.641Z,3.73
2023-02-24T19:55:36.830Z,3.69
2023-02-24T19:57:47.173Z,3.65
2023-02-24T19:59:57.574Z,3.64
2023-02-24T20:02:07.989Z,3.62
2023-02-24T20:04:26.120Z,3.6
2023-02-24T20:06:37.231Z,3.6
2023-02-24T20:08:54.690Z,3.61
2023-02-24T20:11:09.230Z,3.65
2023-02-24T20:13:18.962Z,3.66
2023-02-24T20:15:28.019Z,3.68
2023-02-24T20:17:43.082Z,3.7
2023-02-24T20:19:53.880Z,3.69
2023-02-24T20:22:04.877Z,3.67
2023-02-24T20:24:16.828Z,3.63
2023-02-24T20:26:25.398Z,3.57
2023-02-24T20:28:46.242Z,3.53
2023-02-24T20:30:55.032Z,3.46
2023-02-24T20:33:04.866Z,3.39
2023-02-24T20:35:16.784Z,3.36
2023-02-24T20:37:30.360Z,3.3
2023-02-24T20:39:48.833Z,3.2
2023-02-24T20:42:05.792Z,3.1
2023-02-24T20:44:14.786Z,3.03
2023-02-24T20:46:31.619Z,2.96
2023-02-24T20:48:51.714Z,2.89
2023-02-24T20:51:00.481Z,2.86
2023-02-24T20:53:08.402Z,2.9
2023-02-24T20:55:17.545Z,2.94
2023-02-24T20:57:30.004Z,2.98
2023-02-24T20:59:39.922Z,2.93
2023-02-24T21:02:08.557Z,2.91
2023-02-24T21:04:16.931Z,2.93
2023-02-24T21:06:26.261Z,2.9
2023-02-24T21:08:37.815Z,2.88
2023-02-24T21:10:47.469Z,2.92
2023-02-24T21:12:55.212Z,2.94
2023-02-24T21:15:05.588Z,2.93
2023-02-24T21:17:13.776Z,2.94
2023-02-24T21:19:21.196Z,2.92
2023-02-24T21:21:28.506Z,2.94
2023-02-24T21:23:35.494Z,2.95
2023-02-24T21:25:43.752Z,2.96
2023-02-24T21:27:54.818Z,2.96
2023-02-24T21:30:02.240Z,2.99
2023-02-24T21:32:09.810Z,3.01
2023-02-24T21:34:17.441Z,3.06
2023-02-24T21:36:24.541Z,3.11
2023-02-24T21:38:31.741Z,3.13
2023-02-24T21:40:39.313Z,3.12
2023-02-24T21:42:46.240Z,3.12
2023-02-24T21:44:53.109Z,3.15
2023-02-24T21:46:59.567Z,3.16
2023-02-24T21:49:08.188Z,3.17
2023-02-24T21:51:14.916Z,3.21
2023-02-24T21:53:23.029Z,3.39
2023-02-24T21:55:30.896Z,3.43
2023-02-24T21:57:39.364Z,3.49
2023-02-24T21:59:47.714Z,3.56
2023-02-24T22:01:55.825Z,3.59
2023-02-24T22:04:03.881Z,3.64
2023-02-24T22:06:10.633Z,3.69
2023-02-24T22:08:16.396Z,3.71
2023-02-24T22:10:22.299Z,3.74
2023-02-24T22:12:28.712Z,3.77
2023-02-24T22:14:34.598Z,3.77
2023-02-24T22:16:40.834Z,3.79
2023-02-24T22:18:47.149Z,3.79
2023-02-24T22:20:53.615Z,3.81
2023-02-24T22:22:59.493Z,3.84
2023-02-24T22:25:05.851Z,3.89
2023-02-24T22:27:12.144Z,3.89
2023-02-24T22:29:18.569Z,3.91
2023-02-24T22:31:24.240Z,3.9
2023-02-24T22:33:30.234Z,3.89
2023-02-24T22:35:35.917Z,3.87
2023-02-24T22:37:41.518Z,3.89
2023-02-24T22:39:46.910Z,3.88
2023-02-24T22:41:52.414Z,3.84
2023-02-24T22:43:58.152Z,3.84
2023-02-24T22:46:03.895Z,3.84
2023-02-24T22:48:09.578Z,3.86
2023-02-24T22:50:15.706Z,3.83
2023-02-24T22:52:21.478Z,3.84
2023-02-24T22:54:26.772Z,3.79
2023-02-24T22:56:32.118Z,3.8
2023-02-24T22:58:38.110Z,3.79
2023-02-24T23:00:43.898Z,3.75
2023-02-24T23:02:49.789Z,3.74
2023-02-24T23:04:55.250Z,3.73
2023-02-24T23:07:00.814Z,3.71
2023-02-24T23:09:06.836Z,3.7
2023-02-24T23:11:12.837Z,3.68
2023-02-24T23:13:18.369Z,3.7
2023-02-24T23:15:23.774Z,3.7
2023-02-24T23:17:29.134Z,3.66
2023-02-24T23:19:34.899Z,3.65
2023-02-24T23:21:40.545Z,3.64
2023-02-24T23:23:45.665Z,3.62
2023-02-24T23:25:51.328Z,3.58
2023-02-24T23:27:56.840Z,3.56
2023-02-24T23:30:02.645Z,3.56
2023-02-24T23:32:08.436Z,3.55
2023-02-24T23:34:14.582Z,3.54
2023-02-24T23:36:20.287Z,3.51
2023-02-24T23:38:27.705Z,3.51
2023-02-24T23:40:41.352Z,3.48
2023-02-24T23:42:55.272Z,3.48
2023-02-24T23:45:00.525Z,3.49
2023-02-24T23:47:05.850Z,3.46
2023-02-24T23:49:11.200Z,3.45
2023-02-24T23:51:16.638Z,3.45
2023-02-24T23:53:22.280Z,3.45
2023-02-24T23:55:27.700Z,3.43
2023-02-24T23:57:33.350Z,3.36
2023-02-24T23:59:38.894Z,3.36
